Time;durP1;ratioP1;P1;durP2;ratioP2;P2;SDS_P1;SDS_P2;PMS_P1;PMS_P2;Temp;Humidity;BMP_temperature;BMP_pressure;BME280_temperature;BME280_humidity;BME280_pressure;Samples;Min_cycle;Max_cycle;Signal;HPM_P1;HPM_P2
2021/04/30 00:01:40;;;;;;;19.17;9.63;;;8.90;91.40;;;;;;5114915;28;20094;-84
2021/04/30 00:04:06;;;;;;;18.33;9.33;;;8.80;91.50;;;;;;5096422;28;20067;-85
2021/04/30 00:06:32;;;;;;;16.77;9.33;;;8.80;91.60;;;;;;5114318;28;20034;-83
2021/04/30 00:08:57;;;;;;;21.93;10.33;;;8.80;91.90;;;;;;5113589;28;20039;-84
2021/04/30 00:11:23;;;;;;;16.03;9.63;;;8.70;92.30;;;;;;5114880;28;20035;-84
2021/04/30 00:13:49;;;;;;;18.43;10.17;;;8.70;92.30;;;;;;5116594;28;20066;-84
2021/04/30 00:16:14;;;;;;;17.30;10.03;;;8.70;92.20;;;;;;5098166;28;20023;-84
2021/04/30 00:18:40;;;;;;;18.93;9.40;;;8.60;92.20;;;;;;5098250;28;20073;-84
2021/04/30 00:21:06;;;;;;;19.73;10.10;;;8.70;92.30;;;;;;5097661;28;20023;-84
2021/04/30 00:23:33;;;;;;;15.47;9.30;;;8.70;92.10;;;;;;5116416;28;20376;-84
2021/04/30 00:26:02;;;;;;;18.27;9.87;;;8.70;92.00;;;;;;5098057;28;20028;-84
2021/04/30 00:28:28;;;;;;;17.50;9.13;;;8.70;91.80;;;;;;5098620;28;20376;-84
2021/04/30 00:30:54;;;;;;;17.87;9.50;;;8.70;92.00;;;;;;5099682;28;20071;-84
2021/04/30 00:33:21;;;;;;;20.57;9.20;;;8.70;92.30;;;;;;5099687;28;20069;-85
2021/04/30 00:35:49;;;;;;;18.67;9.23;;;8.70;92.00;;;;;;5101002;28;20042;-84
2021/04/30 00:38:15;;;;;;;20.40;8.87;;;8.80;91.70;;;;;;5099689;28;20044;-84
2021/04/30 00:40:41;;;;;;;17.00;8.60;;;8.80;91.60;;;;;;5099478;28;20034;-84
2021/04/30 00:43:07;;;;;;;19.47;8.90;;;8.70;91.70;;;;;;5117663;28;20019;-83
2021/04/30 00:45:33;;;;;;;18.77;9.57;;;8.60;91.80;;;;;;5097652;28;20034;-84
2021/04/30 00:47:59;;;;;;;20.27;9.10;;;8.60;91.70;;;;;;5097700;28;20027;-83
2021/04/30 00:50:26;;;;;;;18.23;8.70;;;8.60;91.80;;;;;;5096994;28;20031;-84
2021/04/30 00:52:52;;;;;;;14.73;8.20;;;8.50;91.80;;;;;;5097408;28;20080;-84
2021/04/30 00:55:20;;;;;;;16.43;9.27;;;8.50;91.90;;;;;;5097381;28;20036;-84
2021/04/30 00:57:56;;;;;;;22.03;9.17;;;8.50;91.90;;;;;;5097382;28;20415;-84
2021/04/30 01:00:23;;;;;;;17.83;8.67;;;8.50;91.80;;;;;;5115003;28;20099;-83
2021/04/30 01:02:49;;;;;;;16.33;9.00;;;8.50;92.00;;;;;;5097460;28;20402;-84
2021/04/30 01:05:16;;;;;;;17.67;9.07;;;8.60;91.80;;;;;;5097410;28;20030;-84
2021/04/30 01:07:42;;;;;;;18.23;8.57;;;8.60;91.70;;;;;;5115419;28;20056;-84
2021/04/30 01:10:08;;;;;;;18.40;9.33;;;8.50;91.80;;;;;;5096461;28;20031;-84
2021/04/30 01:12:35;;;;;;;21.23;10.50;;;8.50;91.80;;;;;;5097024;28;20023;-84
2021/04/30 01:15:01;;;;;;;23.73;9.80;;;8.50;91.80;;;;;;5096984;28;20031;-84
2021/04/30 01:17:27;;;;;;;18.40;8.77;;;8.60;91.70;;;;;;5115270;28;20058;-85
2021/04/30 01:19:58;;;;;;;18.33;9.07;;;8.60;91.70;;;;;;5096277;28;20073;-84
2021/04/30 01:22:38;;;;;;;23.83;11.60;;;8.60;92.00;;;;;;5095722;28;20323;-84
2021/04/30 01:25:05;;;;;;;21.17;10.30;;;8.60;91.90;;;;;;5096730;28;20027;-84
2021/04/30 01:27:31;;;;;;;20.33;11.70;;;8.70;91.60;;;;;;5096849;28;20039;-84
2021/04/30 01:29:57;;;;;;;25.60;10.10;;;8.70;91.70;;;;;;5114836;28;20029;-85
2021/04/30 01:32:23;;;;;;;21.20;9.70;;;8.60;91.70;;;;;;5096757;28;20031;-84
2021/04/30 01:34:49;;;;;;;19.40;9.63;;;8.70;91.60;;;;;;5115239;28;20035;-84
2021/04/30 01:37:15;;;;;;;21.93;10.07;;;8.70;91.90;;;;;;5114884;28;20027;-83
2021/04/30 01:39:41;;;;;;;21.73;10.10;;;8.70;91.70;;;;;;5095902;28;20048;-84
2021/04/30 01:42:07;;;;;;;19.43;10.20;;;8.80;91.50;;;;;;5096314;28;20446;-84
2021/04/30 01:44:33;;;;;;;20.67;10.23;;;8.80;91.40;;;;;;5096328;28;20028;-84
2021/04/30 01:46:59;;;;;;;23.07;10.07;;;8.80;91.40;;;;;;5117996;28;20031;-82
2021/04/30 01:49:25;;;;;;;16.33;9.53;;;8.80;91.40;;;;;;5099025;28;20027;-82
2021/04/30 01:51:51;;;;;;;18.27;9.67;;;8.80;91.20;;;;;;5117676;28;20099;-83
2021/04/30 01:54:17;;;;;;;15.63;9.80;;;8.80;91.20;;;;;;5117770;28;20035;-82
2021/04/30 01:56:42;;;;;;;20.03;9.73;;;8.80;91.10;;;;;;5099511;28;20041;-83
2021/04/30 01:59:08;;;;;;;16.77;8.77;;;8.70;91.30;;;;;;5100111;28;20030;-82
2021/04/30 02:01:34;;;;;;;15.80;9.00;;;8.80;91.20;;;;;;5117256;28;20107;-82
2021/04/30 02:03:59;;;;;;;17.67;10.10;;;8.80;91.40;;;;;;5117555;28;20490;-83
2021/04/30 02:06:25;;;;;;;19.50;9.63;;;8.80;91.30;;;;;;5117183;28;20244;-82
2021/04/30 02:08:53;;;;;;;20.27;10.03;;;8.80;91.80;;;;;;5098401;28;20067;-83
2021/04/30 02:11:19;;;;;;;19.20;9.03;;;8.80;91.50;;;;;;5098388;28;20460;-83
2021/04/30 02:13:44;;;;;;;25.47;11.17;;;8.70;91.30;;;;;;5116619;28;20023;-82
2021/04/30 02:16:10;;;;;;;21.57;11.37;;;8.70;91.40;;;;;;5098692;28;20124;-82
2021/04/30 02:18:35;;;;;;;19.47;9.30;;;8.80;91.40;;;;;;5098328;28;20545;-82
2021/04/30 02:21:01;;;;;;;17.70;9.03;;;8.80;91.40;;;;;;5097476;28;20032;-82
2021/04/30 02:23:27;;;;;;;18.03;8.60;;;8.80;91.50;;;;;;5116521;28;20133;-83
2021/04/30 02:25:52;;;;;;;15.47;8.53;;;8.80;91.30;;;;;;5098141;28;20077;-82
2021/04/30 02:28:18;;;;;;;17.80;9.23;;;8.80;91.20;;;;;;5097998;28;20036;-82
2021/04/30 02:30:44;;;;;;;20.40;9.50;;;8.70;91.10;;;;;;5115736;28;20024;-82
2021/04/30 02:33:12;;;;;;;20.67;9.60;;;8.60;91.40;;;;;;5098000;28;20118;-83
2021/04/30 02:35:44;;;;;;;17.53;9.20;;;8.60;91.50;;;;;;5097945;28;20041;-83
2021/04/30 02:38:12;;;;;;;16.73;8.50;;;8.60;91.60;;;;;;5098021;28;20085;-84
2021/04/30 02:40:39;;;;;;;18.20;8.83;;;8.60;91.50;;;;;;5096660;28;20023;-84
2021/04/30 02:43:10;;;;;;;18.00;8.63;;;8.60;91.50;;;;;;5096528;28;20092;-84
2021/04/30 02:45:37;;;;;;;19.77;9.83;;;8.70;91.40;;;;;;5096961;28;20036;-82
2021/04/30 02:48:10;;;;;;;16.67;9.03;;;8.60;91.50;;;;;;5115964;28;20551;-82
2021/04/30 02:50:36;;;;;;;21.17;8.60;;;8.70;91.20;;;;;;5096872;28;20035;-82
2021/04/30 02:53:02;;;;;;;19.23;8.57;;;8.70;91.20;;;;;;5116450;28;20036;-82
2021/04/30 02:55:28;;;;;;;14.47;8.53;;;8.80;91.00;;;;;;5097162;28;20047;-83
2021/04/30 02:57:57;;;;;;;19.57;9.53;;;8.80;90.90;;;;;;5097493;28;20089;-82
2021/04/30 03:00:25;;;;;;;19.13;8.80;;;8.70;91.00;;;;;;5115610;28;20034;-82
2021/04/30 03:02:51;;;;;;;22.87;10.33;;;8.60;91.10;;;;;;5115690;28;20099;-82
2021/04/30 03:05:17;;;;;;;21.13;9.27;;;8.60;91.40;;;;;;5097387;28;20515;-82
2021/04/30 03:07:43;;;;;;;22.10;10.87;;;8.50;91.50;;;;;;5115411;28;20020;-83
2021/04/30 03:10:11;;;;;;;22.97;10.23;;;8.50;91.60;;;;;;5096829;28;20030;-82
2021/04/30 03:12:37;;;;;;;19.70;10.50;;;8.50;91.70;;;;;;5097338;28;20023;-82
2021/04/30 03:15:04;;;;;;;19.27;10.47;;;8.50;91.90;;;;;;5114985;28;20506;-83
2021/04/30 03:17:30;;;;;;;20.87;10.77;;;8.30;92.30;;;;;;5115093;28;20115;-82
2021/04/30 03:19:56;;;;;;;25.43;12.03;;;8.30;92.40;;;;;;5096098;28;20031;-82
2021/04/30 03:22:21;;;;;;;22.53;11.70;;;8.40;92.50;;;;;;5096678;28;20016;-82
2021/04/30 03:24:47;;;;;;;25.73;11.13;;;8.40;92.60;;;;;;5096846;28;20160;-82
2021/04/30 03:27:13;;;;;;;21.67;11.30;;;8.30;92.70;;;;;;5096591;28;20031;-83
2021/04/30 03:29:39;;;;;;;23.83;12.00;;;8.40;92.80;;;;;;5095788;28;20020;-84
2021/04/30 03:32:07;;;;;;;25.13;11.83;;;8.20;92.90;;;;;;5096561;28;20024;-82
2021/04/30 03:34:33;;;;;;;23.10;11.57;;;8.30;93.20;;;;;;5096484;28;20536;-83
2021/04/30 03:36:59;;;;;;;28.43;13.17;;;8.30;93.10;;;;;;5114296;28;20096;-84
2021/04/30 03:39:24;;;;;;;21.83;11.47;;;8.40;93.10;;;;;;5096230;28;20468;-82
2021/04/30 03:41:50;;;;;;;24.70;11.87;;;8.30;93.10;;;;;;5097032;28;20028;-83
2021/04/30 03:44:15;;;;;;;27.73;12.03;;;8.20;93.20;;;;;;5115222;28;20472;-82
2021/04/30 03:46:41;;;;;;;28.63;12.30;;;8.20;93.20;;;;;;5095865;28;20039;-82
2021/04/30 03:49:07;;;;;;;21.83;12.93;;;8.30;93.10;;;;;;5096048;28;20031;-82
2021/04/30 03:51:32;;;;;;;19.23;11.57;;;8.40;93.10;;;;;;5114426;28;20028;-82
2021/04/30 03:53:58;;;;;;;25.20;13.10;;;8.20;93.40;;;;;;5114408;28;20414;-82
2021/04/30 03:56:23;;;;;;;24.17;13.83;;;8.30;93.40;;;;;;5096102;28;20047;-83
2021/04/30 03:58:49;;;;;;;22.10;13.17;;;8.30;93.40;;;;;;5114616;28;20031;-84
2021/04/30 04:01:15;;;;;;;24.23;13.20;;;8.30;93.30;;;;;;5114038;28;20484;-82
2021/04/30 04:03:40;;;;;;;24.30;13.37;;;8.40;93.40;;;;;;5114434;28;20027;-82
2021/04/30 04:06:06;;;;;;;24.33;14.33;;;8.30;93.40;;;;;;5096227;28;20034;-82
2021/04/30 04:08:32;;;;;;;28.73;14.17;;;8.30;93.60;;;;;;5096046;28;20077;-82
2021/04/30 04:10:57;;;;;;;23.27;13.97;;;8.30;93.70;;;;;;5095569;28;20043;-84
2021/04/30 04:13:25;;;;;;;26.33;14.30;;;8.30;93.80;;;;;;5096599;28;20365;-82
2021/04/30 04:15:52;;;;;;;25.80;13.37;;;8.40;93.50;;;;;;5095970;28;20059;-82
2021/04/30 04:18:19;;;;;;;23.23;12.47;;;8.30;93.60;;;;;;5114343;28;20031;-83
2021/04/30 04:20:45;;;;;;;23.30;12.90;;;8.40;93.70;;;;;;5113781;28;20019;-82
2021/04/30 04:23:12;;;;;;;22.63;13.13;;;8.40;93.40;;;;;;5114584;28;20054;-82
2021/04/30 04:25:38;;;;;;;30.70;14.33;;;8.40;93.50;;;;;;5095788;28;20020;-82
2021/04/30 04:28:05;;;;;;;26.90;14.27;;;8.40;93.40;;;;;;5114324;28;20080;-84
2021/04/30 04:30:31;;;;;;;23.83;14.80;;;8.40;93.70;;;;;;5095333;28;20027;-83
2021/04/30 04:32:56;;;;;;;26.93;14.27;;;8.30;93.80;;;;;;5114628;28;20031;-82
2021/04/30 04:35:22;;;;;;;30.27;14.43;;;8.30;93.90;;;;;;5113908;28;20476;-82
2021/04/30 04:37:48;;;;;;;29.87;15.07;;;8.40;93.80;;;;;;5096017;28;20031;-82
2021/04/30 04:40:18;;;;;;;29.43;14.90;;;8.30;94.00;;;;;;5095435;28;20186;-82
2021/04/30 04:42:44;;;;;;;;;;;8.40;94.00;;;;;;5096265;28;20030;-82
2021/04/30 04:45:11;;;;;;;27.47;16.23;;;8.40;94.00;;;;;;5114210;28;19918;-82
2021/04/30 04:47:37;;;;;;;29.67;17.33;;;8.40;94.10;;;;;;5096000;28;20028;-83
2021/04/30 04:50:03;;;;;;;30.67;17.93;;;8.50;94.10;;;;;;5114010;28;20030;-84
2021/04/30 04:52:29;;;;;;;30.20;17.40;;;8.40;94.10;;;;;;5114668;28;20026;-82
2021/04/30 04:54:54;;;;;;;34.93;19.30;;;8.40;94.20;;;;;;5096342;28;20027;-83
2021/04/30 04:57:20;;;;;;;28.97;17.87;;;8.40;94.30;;;;;;5116466;28;20027;-83
2021/04/30 04:59:46;;;;;;;36.43;18.97;;;8.40;94.40;;;;;;5099697;28;20028;-83
2021/04/30 05:02:11;;;;;;;29.93;17.53;;;8.30;94.40;;;;;;5118444;28;20106;-82
2021/04/30 05:04:37;;;;;;;29.73;18.13;;;8.40;94.60;;;;;;5100103;28;20024;-82
2021/04/30 05:07:03;;;;;;;32.63;18.57;;;8.40;94.50;;;;;;5118179;28;20027;-84
2021/04/30 05:09:29;;;;;;;32.43;18.67;;;8.30;94.50;;;;;;5117594;28;20383;-81
2021/04/30 05:11:55;;;;;;;37.17;19.13;;;8.40;94.60;;;;;;5118353;28;20012;-82
2021/04/30 05:14:21;;;;;;;30.23;17.73;;;8.40;94.60;;;;;;5101057;28;20019;-82
2021/04/30 05:16:47;;;;;;;41.07;18.77;;;8.40;94.80;;;;;;5102297;28;20710;-82
2021/04/30 05:19:12;;;;;;;35.37;17.60;;;8.40;95.10;;;;;;5121240;28;20024;-82
2021/04/30 05:21:44;;;;;;;45.70;18.47;;;8.40;95.10;;;;;;5099698;28;20019;-82
2021/04/30 05:24:11;;;;;;;34.20;16.33;;;8.40;94.80;;;;;;5099581;28;20028;-83
2021/04/30 05:26:37;;;;;;;29.27;16.97;;;8.30;95.00;;;;;;5098348;28;20514;-82
2021/04/30 05:29:04;;;;;;;30.13;17.50;;;8.30;95.20;;;;;;5100664;28;20024;-84
2021/04/30 05:31:30;;;;;;;29.47;16.83;;;8.30;95.30;;;;;;5101346;28;20028;-85
2021/04/30 05:33:56;;;;;;;29.63;16.73;;;8.40;95.20;;;;;;5101739;28;20565;-84
2021/04/30 05:36:21;;;;;;;35.63;17.30;;;8.30;95.30;;;;;;5101890;28;20020;-82
2021/04/30 05:38:47;;;;;;;32.03;17.40;;;8.30;95.60;;;;;;5120128;28;20287;-83
2021/04/30 05:41:12;;;;;;;29.80;17.77;;;8.30;95.50;;;;;;5119191;28;20024;-83
2021/04/30 05:43:38;;;;;;;27.53;16.50;;;8.30;95.80;;;;;;5101824;28;20050;-84
2021/04/30 05:46:04;;;;;;;31.13;16.27;;;8.30;96.00;;;;;;5101797;28;20142;-84
2021/04/30 05:48:29;;;;;;;34.80;16.87;;;8.40;95.70;;;;;;5101052;28;20333;-82
2021/04/30 05:50:55;;;;;;;33.73;17.60;;;8.40;95.90;;;;;;5098833;28;20361;-82
2021/04/30 05:53:22;;;;;;;39.43;21.67;;;8.30;95.90;;;;;;5098433;28;20055;-82
2021/04/30 05:55:49;;;;;;;27.70;15.97;;;8.30;95.90;;;;;;5097368;28;20023;-85
2021/04/30 05:58:15;;;;;;;29.80;16.40;;;8.20;96.10;;;;;;5115859;28;20092;-83
2021/04/30 06:00:40;;;;;;;29.03;15.77;;;8.20;95.70;;;;;;5116779;28;20020;-82
2021/04/30 06:03:06;;;;;;;30.03;16.13;;;8.20;96.00;;;;;;5098254;28;20027;-83
2021/04/30 06:05:32;;;;;;;28.90;15.80;;;8.20;95.70;;;;;;5115178;28;20027;-82
2021/04/30 06:07:57;;;;;;;26.90;16.00;;;8.20;95.80;;;;;;5096922;28;20072;-82
2021/04/30 06:10:23;;;;;;;29.03;15.57;;;8.30;95.70;;;;;;5115043;28;20027;-82
2021/04/30 06:12:49;;;;;;;31.17;16.20;;;8.30;95.40;;;;;;5096510;28;20035;-82
2021/04/30 06:15:14;;;;;;;36.87;17.40;;;8.20;95.60;;;;;;5114564;28;20020;-83
2021/04/30 06:17:40;;;;;;;35.73;17.37;;;8.30;95.40;;;;;;5114684;28;20027;-82
2021/04/30 06:20:07;;;;;;;32.50;17.57;;;8.30;95.50;;;;;;5115672;28;20476;-82
2021/04/30 06:22:32;;;;;;;34.60;17.90;;;8.20;95.60;;;;;;5117731;28;20024;-82
2021/04/30 06:24:58;;;;;;;34.73;18.00;;;8.30;95.60;;;;;;5098425;28;20114;-82
2021/04/30 06:27:24;;;;;;;37.10;18.80;;;8.20;95.90;;;;;;5099186;28;20027;-82
2021/04/30 06:29:50;;;;;;;31.77;18.10;;;8.10;96.10;;;;;;5118058;28;20501;-83
2021/04/30 06:32:15;;;;;;;38.80;18.37;;;8.20;95.90;;;;;;5099809;28;20106;-83
2021/04/30 06:34:41;;;;;;;43.00;19.23;;;8.20;95.80;;;;;;5100002;28;20023;-83
2021/04/30 06:37:07;;;;;;;31.80;17.50;;;8.20;95.70;;;;;;5100164;28;20023;-83
2021/04/30 06:39:33;;;;;;;39.60;18.87;;;8.30;95.70;;;;;;5099599;28;20016;-82
2021/04/30 06:42:02;;;;;;;31.07;18.00;;;8.30;95.60;;;;;;5099626;28;20032;-83
2021/04/30 06:44:29;;;;;;;29.35;17.95;;;8.30;95.50;;;;;;5099767;28;20061;-84
2021/04/30 06:46:55;;;;;;;35.70;17.83;;;8.30;95.50;;;;;;5117815;28;20035;-83
2021/04/30 06:49:21;;;;;;;32.57;17.47;;;8.30;95.50;;;;;;5099277;28;20036;-82
2021/04/30 06:51:48;;;;;;;36.93;19.47;;;8.40;95.90;;;;;;5099544;28;20386;-82
2021/04/30 06:54:14;;;;;;;35.27;20.80;;;8.40;95.50;;;;;;5117889;28;20480;-82
2021/04/30 06:56:40;;;;;;;37.57;21.07;;;8.40;95.70;;;;;;5098439;28;20035;-83
2021/04/30 06:59:05;;;;;;;40.13;22.77;;;8.40;95.90;;;;;;5098184;28;20024;-85
2021/04/30 07:01:31;;;;;;;36.77;22.40;;;8.40;96.00;;;;;;5098547;28;20518;-84
2021/04/30 07:03:56;;;;;;;43.07;23.20;;;8.40;96.10;;;;;;5117189;28;20024;-82
2021/04/30 07:06:22;;;;;;;41.53;24.10;;;8.30;96.30;;;;;;5098561;28;20045;-82
2021/04/30 07:08:50;;;;;;;42.07;24.13;;;8.30;96.40;;;;;;5116988;28;20332;-84
2021/04/30 07:11:15;;;;;;;37.03;23.07;;;8.20;96.30;;;;;;5098657;28;20143;-83
2021/04/30 07:13:41;;;;;;;37.57;24.00;;;8.20;96.60;;;;;;5098991;28;20027;-82
2021/04/30 07:16:07;;;;;;;37.00;24.30;;;8.30;96.40;;;;;;5099849;28;20368;-83
2021/04/30 07:18:33;;;;;;;42.43;24.87;;;8.30;96.30;;;;;;5117120;28;20048;-83
2021/04/30 07:20:59;;;;;;;42.10;24.30;;;8.40;96.10;;;;;;5116121;28;20023;-83
2021/04/30 07:23:26;;;;;;;38.73;24.43;;;8.40;96.00;;;;;;5099292;28;20023;-84
2021/04/30 07:25:51;;;;;;;40.70;25.03;;;8.30;95.90;;;;;;5098281;28;20100;-82
2021/04/30 07:28:18;;;;;;;40.47;26.10;;;8.30;96.20;;;;;;5098963;28;20027;-83
2021/04/30 07:30:44;;;;;;;42.10;25.73;;;8.30;96.30;;;;;;5115893;28;20023;-83
2021/04/30 07:33:11;;;;;;;41.47;25.53;;;8.40;96.20;;;;;;5098410;28;20391;-82
2021/04/30 07:35:37;;;;;;;41.27;24.50;;;8.30;96.00;;;;;;5116630;28;20537;-85
2021/04/30 07:38:05;;;;;;;47.23;26.00;;;8.30;95.90;;;;;;5097807;28;20484;-83
2021/04/30 07:40:30;;;;;;;40.60;25.70;;;8.30;95.90;;;;;;5098095;28;20438;-85
2021/04/30 07:42:57;;;;;;;43.00;26.07;;;8.30;95.90;;;;;;5116560;28;20020;-82
2021/04/30 07:45:22;;;;;;;44.73;26.47;;;8.30;95.90;;;;;;5098734;28;20411;-83
2021/04/30 07:47:48;;;;;;;40.93;26.23;;;8.30;95.80;;;;;;5116895;28;20028;-82
2021/04/30 07:50:14;;;;;;;42.13;27.80;;;8.30;95.90;;;;;;5097773;28;20023;-82
2021/04/30 07:52:40;;;;;;;50.33;26.87;;;8.40;95.90;;;;;;5098828;28;20500;-84
2021/04/30 07:55:06;;;;;;;45.67;27.63;;;8.30;95.80;;;;;;5116827;28;20024;-85
2021/04/30 07:57:34;;;;;;;44.43;26.30;;;8.40;95.70;;;;;;5098618;28;20024;-82
2021/04/30 08:00:00;;;;;;;49.70;27.20;;;8.30;95.60;;;;;;5098467;28;20031;-82
2021/04/30 08:02:26;;;;;;;43.23;26.10;;;8.40;95.60;;;;;;5117144;28;20020;-84
2021/04/30 08:04:52;;;;;;;47.37;26.37;;;8.40;95.50;;;;;;5117024;28;20048;-82
2021/04/30 08:07:18;;;;;;;45.23;26.13;;;8.40;95.70;;;;;;5098476;28;20039;-82
2021/04/30 08:09:44;;;;;;;45.97;25.83;;;8.40;95.50;;;;;;5097821;28;20020;-85
2021/04/30 08:12:09;;;;;;;42.50;26.13;;;8.30;95.70;;;;;;5116412;28;20020;-84
2021/04/30 08:14:36;;;;;;;46.20;27.07;;;8.30;95.60;;;;;;5097572;28;20045;-83
2021/04/30 08:17:02;;;;;;;45.70;27.53;;;8.30;95.60;;;;;;5098276;28;20023;-84
2021/04/30 08:19:28;;;;;;;40.50;26.37;;;8.30;95.70;;;;;;5098065;28;20023;-84
2021/04/30 08:21:54;;;;;;;48.23;29.47;;;8.30;95.80;;;;;;5098507;28;20399;-84
2021/04/30 08:24:21;;;;;;;51.27;29.13;;;8.50;95.40;;;;;;5098398;28;20026;-83
2021/04/30 08:26:47;;;;;;;52.77;30.00;;;8.40;95.40;;;;;;5098262;28;20496;-83
2021/04/30 08:29:13;;;;;;;56.57;30.60;;;8.40;95.60;;;;;;5097910;28;20492;-83
2021/04/30 08:31:39;;;;;;;46.43;30.27;;;8.40;95.40;;;;;;5118354;28;20061;-83
2021/04/30 08:34:05;;;;;;;50.10;28.90;;;8.40;95.60;;;;;;5103363;28;20480;-84
2021/04/30 08:36:30;;;;;;;46.97;28.77;;;8.50;95.50;;;;;;5121801;28;20024;-84
2021/04/30 08:38:56;;;;;;;56.37;30.53;;;8.50;95.40;;;;;;5120815;28;20106;-85
2021/04/30 08:41:26;;;;;;;55.17;30.60;;;8.70;95.30;;;;;;5102704;28;20024;-85
2021/04/30 08:43:51;;;;;;;;;;;8.60;95.10;;;;;;5103326;28;20015;-82
2021/04/30 08:46:17;;;;;;;57.60;29.47;;;8.60;95.20;;;;;;5121217;28;19933;-83
2021/04/30 08:48:44;;;;;;;54.63;30.17;;;8.60;95.30;;;;;;5103249;28;20024;-85
2021/04/30 08:51:11;;;;;;;58.27;32.80;;;8.60;95.20;;;;;;5105334;28;20390;-84
2021/04/30 08:53:40;;;;;;;60.13;32.33;;;8.60;95.40;;;;;;5103795;28;20388;-84
2021/04/30 08:56:06;;;;;;;57.30;31.57;;;8.60;95.30;;;;;;5102691;28;20065;-84
2021/04/30 08:58:37;;;;;;;57.60;30.90;;;8.60;95.30;;;;;;5120881;28;20026;-84
2021/04/30 09:01:04;;;;;;;53.03;29.67;;;8.60;95.20;;;;;;5101977;28;20103;-83
2021/04/30 09:03:32;;;;;;;63.33;31.20;;;8.50;95.00;;;;;;5103124;28;20110;-82
2021/04/30 09:05:59;;;;;;;56.57;30.47;;;8.60;95.20;;;;;;5103042;28;20020;-83
2021/04/30 09:08:26;;;;;;;57.20;30.50;;;8.60;95.20;;;;;;5122030;28;20024;-85
2021/04/30 09:10:52;;;;;;;58.50;29.20;;;8.60;95.10;;;;;;5120700;28;20024;-84
2021/04/30 09:13:22;;;;;;;53.67;29.07;;;8.60;94.90;;;;;;5102781;28;20072;-83
2021/04/30 09:16:04;;;;;;;56.20;28.93;;;8.60;95.00;;;;;;5102774;28;20031;-83
2021/04/30 09:18:32;;;;;;;54.60;30.03;;;8.60;95.20;;;;;;5121155;28;20379;-84
2021/04/30 09:21:10;;;;;;;61.50;32.77;;;8.60;95.10;;;;;;5120895;28;20015;-84
2021/04/30 09:23:40;;;;;;;70.20;35.83;;;8.70;94.70;;;;;;5122318;28;20384;-83
2021/04/30 09:26:28;;;;;;;63.70;33.33;;;8.60;94.90;;;;;;5103626;28;20016;-84
2021/04/30 09:29:03;;;;;;;59.50;31.35;;;8.60;94.90;;;;;;5121002;28;20027;-85
2021/04/30 09:31:41;;;;;;;59.77;30.07;;;8.70;94.80;;;;;;5121462;28;20024;-84
2021/04/30 09:34:28;;;;;;;58.33;31.27;;;8.60;95.00;;;;;;5104770;28;20030;-83
2021/04/30 09:37:16;;;;;;;60.10;31.87;;;8.70;94.90;;;;;;5103934;28;20388;-84
2021/04/30 09:39:54;;;;;;;54.37;29.50;;;8.70;94.90;;;;;;5122669;28;20463;-83
2021/04/30 09:42:28;;;;;;;60.90;31.13;;;8.60;94.90;;;;;;5104430;28;20023;-85
2021/04/30 09:44:57;;;;;;;58.07;30.43;;;8.60;95.10;;;;;;5101111;28;20020;-84
2021/04/30 09:47:29;;;;;;;62.38;30.73;;;8.50;95.20;;;;;;5101787;28;20031;-83
2021/04/30 09:49:59;;;;;;;48.13;27.77;;;8.60;95.00;;;;;;5119257;28;20028;-83
2021/04/30 09:52:27;;;;;;;56.60;29.37;;;8.70;95.00;;;;;;5101876;28;20030;-84
2021/04/30 09:54:54;;;;;;;61.57;29.90;;;8.70;95.00;;;;;;5120117;28;20043;-84
2021/04/30 09:57:23;;;;;;;64.90;30.10;;;8.70;94.90;;;;;;5102153;28;20027;-84
2021/04/30 09:59:52;;;;;;;57.05;29.58;;;8.70;95.10;;;;;;5101488;28;20016;-83
2021/04/30 10:02:19;;;;;;;56.42;28.60;;;8.70;94.90;;;;;;5101921;28;20054;-83
2021/04/30 10:04:49;;;;;;;54.73;28.67;;;8.80;94.90;;;;;;5101789;28;20027;-83
2021/04/30 10:07:29;;;;;;;62.27;30.50;;;8.80;94.80;;;;;;5120448;28;20380;-82
2021/04/30 10:10:04;;;;;;;63.83;30.10;;;8.80;94.70;;;;;;5101959;28;20484;-83
2021/04/30 10:12:31;;;;;;;51.27;28.10;;;8.80;94.70;;;;;;5101498;28;20027;-84
2021/04/30 10:14:57;;;;;;;55.27;28.73;;;8.80;94.70;;;;;;5118519;28;20031;-82
2021/04/30 10:17:23;;;;;;;53.70;28.80;;;8.70;94.80;;;;;;5099324;28;20076;-85
2021/04/30 10:19:50;;;;;;;45.93;26.67;;;8.70;94.90;;;;;;5116507;28;20095;-83
2021/04/30 10:22:23;;;;;;;49.83;26.17;;;8.70;95.20;;;;;;5116077;28;20035;-82
2021/04/30 10:24:55;;;;;;;52.77;28.20;;;8.70;95.10;;;;;;5099070;28;20020;-83
2021/04/30 10:27:33;;;;;;;46.17;25.57;;;8.60;95.40;;;;;;5098259;28;20027;-82
2021/04/30 10:30:10;;;;;;;46.00;27.10;;;8.70;95.50;;;;;;5116619;28;20024;-84
2021/04/30 10:32:43;;;;;;;47.30;26.00;;;8.80;95.70;;;;;;5098263;28;20112;-82
2021/04/30 10:35:11;;;;;;;45.93;25.07;;;8.80;95.70;;;;;;5099226;28;20027;-83
2021/04/30 10:37:40;;;;;;;44.17;25.40;;;8.80;95.70;;;;;;5099066;28;20032;-85
2021/04/30 10:40:07;;;;;;;40.87;24.73;;;8.80;95.50;;;;;;5098427;28;20111;-82
2021/04/30 10:42:43;;;;;;;39.93;25.60;;;8.80;95.60;;;;;;5098435;28;20015;-83
2021/04/30 10:45:12;;;;;;;44.57;25.47;;;8.70;95.50;;;;;;5117133;28;20106;-84
2021/04/30 10:47:38;;;;;;;43.22;26.42;;;8.80;95.40;;;;;;5099831;28;20028;-84
2021/04/30 10:50:16;;;;;;;47.77;25.57;;;8.80;95.50;;;;;;5098208;28;20032;-85
2021/04/30 10:52:43;;;;;;;46.73;25.93;;;8.70;95.70;;;;;;5098510;28;20081;-82
2021/04/30 10:55:16;;;;;;;42.57;26.17;;;8.80;95.80;;;;;;5099131;28;20062;-83
2021/04/30 10:58:03;;;;;;;46.07;26.87;;;8.80;95.80;;;;;;5115385;28;20400;-83
2021/04/30 11:00:38;;;;;;;40.90;25.37;;;8.80;96.00;;;;;;5116029;28;20395;-82
2021/04/30 11:03:14;;;;;;;43.13;26.03;;;8.90;96.00;;;;;;5101290;28;20031;-83
2021/04/30 11:06:04;;;;;;;45.87;27.73;;;9.00;95.60;;;;;;5103384;28;20023;-83
2021/04/30 11:08:46;;;;;;;47.43;28.60;;;9.00;95.60;;;;;;5104825;28;20028;-85
2021/04/30 11:11:12;;;;;;;51.07;29.83;;;9.00;95.40;;;;;;5107969;28;20027;-83
2021/04/30 11:13:37;;;;;;;59.80;33.07;;;9.00;95.50;;;;;;5107249;28;20453;-85
2021/04/30 11:16:03;;;;;;;55.53;34.10;;;9.00;95.30;;;;;;5100407;28;20027;-85
2021/04/30 11:18:30;;;;;;;63.77;35.20;;;9.10;95.20;;;;;;5100790;28;20476;-84
2021/04/30 11:21:18;;;;;;;55.20;32.87;;;9.10;95.10;;;;;;5099195;28;20023;-85
2021/04/30 11:23:47;;;;;;;57.17;32.90;;;9.10;95.20;;;;;;5100425;28;20023;-85
2021/04/30 11:26:15;;;;;;;;;;;9.20;95.10;;;;;;5100419;28;20028;-85
2021/04/30 11:28:40;;;;;;;53.87;33.23;;;9.30;94.90;;;;;;5099441;28;19904;-85
2021/04/30 11:31:25;;;;;;;50.40;31.33;;;9.30;94.90;;;;;;5098833;28;20057;-86
2021/04/30 11:34:09;;;;;;;51.23;31.40;;;9.40;94.80;;;;;;5117079;28;20016;-84
2021/04/30 11:36:40;;;;;;;46.73;30.53;;;9.40;94.50;;;;;;5098686;28;20020;-84
2021/04/30 11:39:19;;;;;;;48.87;30.23;;;9.40;94.50;;;;;;5098431;28;20027;-84
2021/04/30 11:41:46;;;;;;;47.47;30.53;;;9.40;94.40;;;;;;5099340;28;20414;-84
2021/04/30 11:44:14;;;;;;;44.40;29.60;;;9.50;94.50;;;;;;5098927;28;20555;-84
2021/04/30 11:46:40;;;;;;;44.10;30.23;;;9.50;94.30;;;;;;5099082;28;20032;-83
2021/04/30 11:49:05;;;;;;;45.37;30.13;;;9.60;94.20;;;;;;5098300;28;20027;-83
2021/04/30 11:51:41;;;;;;;40.27;27.37;;;9.60;94.10;;;;;;5117775;28;20024;-84
2021/04/30 11:54:07;;;;;;;35.50;24.10;;;9.70;94.10;;;;;;5117341;28;20027;-85
2021/04/30 11:56:33;;;;;;;31.63;21.03;;;9.70;93.20;;;;;;5117313;28;20032;-85
2021/04/30 11:58:58;;;;;;;36.17;24.30;;;9.80;93.00;;;;;;5098844;28;20037;-86
2021/04/30 12:01:26;;;;;;;45.30;28.07;;;9.80;93.00;;;;;;5098877;28;20506;-83
2021/04/30 12:03:55;;;;;;;39.97;26.97;;;9.80;93.10;;;;;;5098794;28;20106;-83
2021/04/30 12:06:28;;;;;;;40.33;25.33;;;9.80;93.10;;;;;;5118073;28;20107;-84
2021/04/30 12:08:55;;;;;;;42.10;27.20;;;9.90;93.10;;;;;;5103822;28;20072;-85
2021/04/30 12:11:35;;;;;;;44.40;27.50;;;9.90;93.30;;;;;;5103797;28;20016;-85
2021/04/30 12:14:06;;;;;;;47.47;27.37;;;10.00;93.00;;;;;;5102957;28;20091;-85
2021/04/30 12:16:32;;;;;;;50.47;28.43;;;10.00;93.00;;;;;;5121670;28;20034;-84
2021/04/30 12:19:01;;;;;;;45.73;26.53;;;9.90;93.00;;;;;;5101698;28;20023;-85
2021/04/30 12:21:29;;;;;;;44.85;24.23;;;10.00;92.80;;;;;;5101732;28;20055;-84
2021/04/30 12:23:55;;;;;;;42.57;24.43;;;9.80;93.10;;;;;;5120866;28;20369;-83
2021/04/30 12:26:33;;;;;;;35.77;21.50;;;9.90;92.80;;;;;;5101985;28;20470;-82
2021/04/30 12:29:00;;;;;;;40.77;22.13;;;10.00;92.50;;;;;;5101760;28;20104;-84
2021/04/30 12:31:27;;;;;;;38.83;21.20;;;10.10;92.40;;;;;;5120695;28;20467;-84
2021/04/30 12:33:54;;;;;;;47.13;26.03;;;10.10;92.40;;;;;;5102917;28;20016;-83
2021/04/30 12:36:27;;;;;;;52.07;27.57;;;10.00;92.20;;;;;;5120080;28;20111;-84
2021/04/30 12:38:55;;;;;;;50.87;26.93;;;10.00;92.50;;;;;;5101514;28;20069;-84
2021/04/30 12:41:33;;;;;;;48.00;24.13;;;10.00;92.40;;;;;;5120267;28;20524;-83